sensor_id;sensor_type;location;lat;lon;timestamp;P1;durP1;ratioP1;P2;durP2;ratioP2
76320;SDS011;65132;52.088;5.402;2022-11-15T00:00:57;51.95;;;16.23;;
76320;SDS011;65132;52.088;5.402;2022-11-15T00:03:27;46.70;;;16.58;;
76320;SDS011;65132;52.088;5.402;2022-11-15T00:05:53;47.55;;;16.58;;
76320;SDS011;65132;52.088;5.402;2022-11-15T00:08:20;73.95;;;21.48;;
76320;SDS011;65132;52.088;5.402;2022-11-15T00:10:59;62.08;;;19.30;;
76320;SDS011;65132;52.088;5.402;2022-11-15T00:13:27;61.30;;;19.10;;
76320;SDS011;65132;52.088;5.402;2022-11-15T00:15:58;66.05;;;18.88;;
76320;SDS011;65132;52.088;5.402;2022-11-15T00:18:26;72.10;;;20.33;;
76320;SDS011;65132;52.088;5.402;2022-11-15T00:20:54;82.93;;;22.13;;
76320;SDS011;65132;52.088;5.402;2022-11-15T00:23:20;79.57;;;20.50;;
76320;SDS011;65132;52.088;5.402;2022-11-15T00:25:46;78.75;;;22.90;;
76320;SDS011;65132;52.088;5.402;2022-11-15T00:28:13;75.65;;;22.38;;
76320;SDS011;65132;52.088;5.402;2022-11-15T00:30:39;87.57;;;24.13;;
76320;SDS011;65132;52.088;5.402;2022-11-15T00:33:06;89.90;;;24.10;;
76320;SDS011;65132;52.088;5.402;2022-11-15T00:35:33;86.43;;;22.65;;
76320;SDS011;65132;52.088;5.402;2022-11-15T00:38:00;94.45;;;24.23;;
76320;SDS011;65132;52.088;5.402;2022-11-15T00:40:28;84.57;;;24.63;;
76320;SDS011;65132;52.088;5.402;2022-11-15T00:42:55;106.03;;;26.08;;
76320;SDS011;65132;52.088;5.402;2022-11-15T00:45:21;96.78;;;25.35;;
76320;SDS011;65132;52.088;5.402;2022-11-15T00:47:47;86.45;;;23.02;;
76320;SDS011;65132;52.088;5.402;2022-11-15T00:50:14;91.68;;;23.98;;
76320;SDS011;65132;52.088;5.402;2022-11-15T00:52:41;110.35;;;25.20;;
76320;SDS011;65132;52.088;5.402;2022-11-15T00:55:09;91.00;;;24.08;;
76320;SDS011;65132;52.088;5.402;2022-11-15T00:57:39;91.13;;;24.38;;
76320;SDS011;65132;52.088;5.402;2022-11-15T01:00:06;81.95;;;22.95;;
76320;SDS011;65132;52.088;5.402;2022-11-15T01:02:33;78.95;;;23.85;;
76320;SDS011;65132;52.088;5.402;2022-11-15T01:05:00;85.15;;;24.73;;
76320;SDS011;65132;52.088;5.402;2022-11-15T01:07:27;91.05;;;24.33;;
76320;SDS011;65132;52.088;5.402;2022-11-15T01:09:53;91.95;;;23.13;;
76320;SDS011;65132;52.088;5.402;2022-11-15T01:12:19;100.85;;;28.35;;
76320;SDS011;65132;52.088;5.402;2022-11-15T01:14:46;79.20;;;21.40;;
76320;SDS011;65132;52.088;5.402;2022-11-15T01:17:12;86.55;;;21.73;;
76320;SDS011;65132;52.088;5.402;2022-11-15T01:19:39;90.05;;;24.23;;
76320;SDS011;65132;52.088;5.402;2022-11-15T01:22:06;86.30;;;23.77;;
76320;SDS011;65132;52.088;5.402;2022-11-15T01:24:32;109.82;;;25.90;;
76320;SDS011;65132;52.088;5.402;2022-11-15T01:26:58;96.88;;;25.27;;
76320;SDS011;65132;52.088;5.402;2022-11-15T01:29:25;91.70;;;23.40;;
76320;SDS011;65132;52.088;5.402;2022-11-15T01:31:52;87.95;;;24.42;;
76320;SDS011;65132;52.088;5.402;2022-11-15T01:34:21;85.95;;;23.02;;
76320;SDS011;65132;52.088;5.402;2022-11-15T01:36:48;77.30;;;21.52;;
76320;SDS011;65132;52.088;5.402;2022-11-15T01:39:14;87.25;;;22.38;;
76320;SDS011;65132;52.088;5.402;2022-11-15T01:41:41;86.43;;;24.42;;
76320;SDS011;65132;52.088;5.402;2022-11-15T01:47:30;95.78;;;23.60;;
76320;SDS011;65132;52.088;5.402;2022-11-15T01:52:32;102.38;;;27.38;;
76320;SDS011;65132;52.088;5.402;2022-11-15T01:55:11;98.78;;;25.58;;
76320;SDS011;65132;52.088;5.402;2022-11-15T01:57:43;90.45;;;24.85;;
76320;SDS011;65132;52.088;5.402;2022-11-15T02:00:12;87.45;;;23.17;;
76320;SDS011;65132;52.088;5.402;2022-11-15T02:02:39;91.93;;;24.25;;
76320;SDS011;65132;52.088;5.402;2022-11-15T02:05:06;88.82;;;24.02;;
76320;SDS011;65132;52.088;5.402;2022-11-15T02:07:34;82.95;;;25.25;;
76320;SDS011;65132;52.088;5.402;2022-11-15T02:10:02;90.78;;;25.65;;
76320;SDS011;65132;52.088;5.402;2022-11-15T02:12:33;81.35;;;23.40;;
76320;SDS011;65132;52.088;5.402;2022-11-15T02:15:00;83.10;;;22.85;;
76320;SDS011;65132;52.088;5.402;2022-11-15T02:17:31;88.15;;;24.67;;
76320;SDS011;65132;52.088;5.402;2022-11-15T02:20:17;75.53;;;22.50;;
76320;SDS011;65132;52.088;5.402;2022-11-15T02:28:28;92.45;;;28.27;;
76320;SDS011;65132;52.088;5.402;2022-11-15T02:31:28;73.72;;;23.02;;
76320;SDS011;65132;52.088;5.402;2022-11-15T02:34:06;61.85;;;23.08;;
76320;SDS011;65132;52.088;5.402;2022-11-15T02:42:08;72.70;;;23.70;;
76320;SDS011;65132;52.088;5.402;2022-11-15T02:44:43;62.38;;;20.23;;
76320;SDS011;65132;52.088;5.402;2022-11-15T02:47:12;63.92;;;21.83;;
76320;SDS011;65132;52.088;5.402;2022-11-15T02:49:56;60.10;;;21.25;;
76320;SDS011;65132;52.088;5.402;2022-11-15T02:52:26;58.33;;;20.38;;
76320;SDS011;65132;52.088;5.402;2022-11-15T02:54:56;59.25;;;20.45;;
76320;SDS011;65132;52.088;5.402;2022-11-15T02:57:45;61.80;;;21.67;;
76320;SDS011;65132;52.088;5.402;2022-11-15T03:00:30;62.50;;;21.27;;
76320;SDS011;65132;52.088;5.402;2022-11-15T03:05:51;62.20;;;20.77;;
76320;SDS011;65132;52.088;5.402;2022-11-15T03:08:26;63.15;;;21.65;;
76320;SDS011;65132;52.088;5.402;2022-11-15T03:13:33;61.45;;;20.15;;
76320;SDS011;65132;52.088;5.402;2022-11-15T03:16:07;62.30;;;20.95;;
76320;SDS011;65132;52.088;5.402;2022-11-15T03:18:41;59.17;;;20.92;;
76320;SDS011;65132;52.088;5.402;2022-11-15T03:21:13;53.28;;;19.65;;
76320;SDS011;65132;52.088;5.402;2022-11-15T03:23:42;57.13;;;20.48;;
76320;SDS011;65132;52.088;5.402;2022-11-15T03:26:11;70.25;;;22.98;;
76320;SDS011;65132;52.088;5.402;2022-11-15T03:28:45;60.88;;;22.77;;
76320;SDS011;65132;52.088;5.402;2022-11-15T03:31:15;59.95;;;22.15;;
76320;SDS011;65132;52.088;5.402;2022-11-15T03:33:44;60.10;;;21.02;;
76320;SDS011;65132;52.088;5.402;2022-11-15T03:36:11;54.85;;;21.05;;
76320;SDS011;65132;52.088;5.402;2022-11-15T03:38:37;53.97;;;20.20;;
76320;SDS011;65132;52.088;5.402;2022-11-15T03:41:05;58.50;;;21.80;;
76320;SDS011;65132;52.088;5.402;2022-11-15T03:43:45;55.58;;;20.15;;
76320;SDS011;65132;52.088;5.402;2022-11-15T03:46:31;62.50;;;21.83;;
76320;SDS011;65132;52.088;5.402;2022-11-15T03:49:07;46.03;;;19.02;;
76320;SDS011;65132;52.088;5.402;2022-11-15T03:51:38;49.40;;;17.85;;
76320;SDS011;65132;52.088;5.402;2022-11-15T03:54:05;53.83;;;21.45;;
76320;SDS011;65132;52.088;5.402;2022-11-15T03:56:31;55.03;;;19.73;;
76320;SDS011;65132;52.088;5.402;2022-11-15T03:58:58;55.88;;;21.60;;
76320;SDS011;65132;52.088;5.402;2022-11-15T04:01:24;57.70;;;20.60;;
76320;SDS011;65132;52.088;5.402;2022-11-15T04:03:51;60.22;;;22.58;;
76320;SDS011;65132;52.088;5.402;2022-11-15T04:06:17;52.47;;;20.10;;
76320;SDS011;65132;52.088;5.402;2022-11-15T04:08:43;52.35;;;20.85;;
76320;SDS011;65132;52.088;5.402;2022-11-15T04:11:10;49.60;;;19.17;;
76320;SDS011;65132;52.088;5.402;2022-11-15T04:13:36;57.30;;;22.50;;
76320;SDS011;65132;52.088;5.402;2022-11-15T04:16:02;53.08;;;20.67;;
76320;SDS011;65132;52.088;5.402;2022-11-15T04:18:29;58.13;;;21.75;;
76320;SDS011;65132;52.088;5.402;2022-11-15T04:20:55;60.90;;;22.55;;
76320;SDS011;65132;52.088;5.402;2022-11-15T04:23:22;61.17;;;21.45;;
76320;SDS011;65132;52.088;5.402;2022-11-15T04:25:49;54.30;;;19.98;;
76320;SDS011;65132;52.088;5.402;2022-11-15T04:28:17;56.53;;;21.05;;
76320;SDS011;65132;52.088;5.402;2022-11-15T04:30:44;53.85;;;19.67;;
76320;SDS011;65132;52.088;5.402;2022-11-15T04:33:11;47.78;;;19.20;;
76320;SDS011;65132;52.088;5.402;2022-11-15T04:35:37;52.63;;;21.98;;
76320;SDS011;65132;52.088;5.402;2022-11-15T04:38:04;52.40;;;20.95;;
76320;SDS011;65132;52.088;5.402;2022-11-15T04:40:31;57.20;;;19.73;;
76320;SDS011;65132;52.088;5.402;2022-11-15T04:42:58;50.55;;;18.70;;
76320;SDS011;65132;52.088;5.402;2022-11-15T04:45:29;56.60;;;21.15;;
76320;SDS011;65132;52.088;5.402;2022-11-15T04:47:56;53.25;;;20.75;;
76320;SDS011;65132;52.088;5.402;2022-11-15T04:50:22;49.28;;;20.23;;
76320;SDS011;65132;52.088;5.402;2022-11-15T04:52:52;48.08;;;18.92;;
76320;SDS011;65132;52.088;5.402;2022-11-15T04:55:20;45.15;;;18.90;;
76320;SDS011;65132;52.088;5.402;2022-11-15T04:57:46;48.33;;;20.08;;
76320;SDS011;65132;52.088;5.402;2022-11-15T05:00:13;52.05;;;19.48;;
76320;SDS011;65132;52.088;5.402;2022-11-15T05:02:41;52.22;;;19.38;;
76320;SDS011;65132;52.088;5.402;2022-11-15T05:05:08;39.78;;;18.58;;
76320;SDS011;65132;52.088;5.402;2022-11-15T05:07:34;50.13;;;19.52;;
76320;SDS011;65132;52.088;5.402;2022-11-15T05:10:00;45.70;;;18.45;;
76320;SDS011;65132;52.088;5.402;2022-11-15T05:12:27;46.65;;;19.40;;
76320;SDS011;65132;52.088;5.402;2022-11-15T05:14:53;47.95;;;20.05;;
76320;SDS011;65132;52.088;5.402;2022-11-15T05:17:19;53.13;;;21.77;;
76320;SDS011;65132;52.088;5.402;2022-11-15T05:19:46;50.38;;;20.67;;
76320;SDS011;65132;52.088;5.402;2022-11-15T05:22:12;45.75;;;18.80;;
76320;SDS011;65132;52.088;5.402;2022-11-15T05:24:39;52.63;;;20.55;;
76320;SDS011;65132;52.088;5.402;2022-11-15T05:27:05;48.53;;;19.20;;
76320;SDS011;65132;52.088;5.402;2022-11-15T05:29:31;45.97;;;18.80;;
76320;SDS011;65132;52.088;5.402;2022-11-15T05:31:58;48.92;;;18.73;;
76320;SDS011;65132;52.088;5.402;2022-11-15T05:34:25;43.75;;;18.38;;
76320;SDS011;65132;52.088;5.402;2022-11-15T05:36:55;48.95;;;18.33;;
76320;SDS011;65132;52.088;5.402;2022-11-15T05:39:21;50.00;;;18.90;;
76320;SDS011;65132;52.088;5.402;2022-11-15T05:41:59;52.53;;;19.52;;
76320;SDS011;65132;52.088;5.402;2022-11-15T05:44:32;46.40;;;18.25;;
76320;SDS011;65132;52.088;5.402;2022-11-15T05:47:02;49.10;;;20.73;;
76320;SDS011;65132;52.088;5.402;2022-11-15T05:49:31;46.03;;;17.55;;
76320;SDS011;65132;52.088;5.402;2022-11-15T05:52:03;46.55;;;19.02;;
76320;SDS011;65132;52.088;5.402;2022-11-15T05:54:32;48.25;;;18.85;;
76320;SDS011;65132;52.088;5.402;2022-11-15T05:57:01;45.75;;;18.08;;
76320;SDS011;65132;52.088;5.402;2022-11-15T05:59:29;45.65;;;18.23;;
76320;SDS011;65132;52.088;5.402;2022-11-15T06:02:09;41.85;;;17.88;;
76320;SDS011;65132;52.088;5.402;2022-11-15T06:04:36;46.60;;;17.50;;
76320;SDS011;65132;52.088;5.402;2022-11-15T06:07:02;50.13;;;20.42;;
76320;SDS011;65132;52.088;5.402;2022-11-15T06:09:31;49.17;;;18.88;;
76320;SDS011;65132;52.088;5.402;2022-11-15T06:11:57;41.03;;;16.95;;
76320;SDS011;65132;52.088;5.402;2022-11-15T06:14:24;45.25;;;18.67;;
76320;SDS011;65132;52.088;5.402;2022-11-15T06:16:51;46.33;;;19.02;;
76320;SDS011;65132;52.088;5.402;2022-11-15T06:19:17;49.20;;;18.63;;
76320;SDS011;65132;52.088;5.402;2022-11-15T06:21:43;47.22;;;18.45;;
76320;SDS011;65132;52.088;5.402;2022-11-15T06:24:10;42.15;;;18.30;;
76320;SDS011;65132;52.088;5.402;2022-11-15T06:26:36;47.92;;;19.00;;
76320;SDS011;65132;52.088;5.402;2022-11-15T06:29:05;46.53;;;18.25;;
76320;SDS011;65132;52.088;5.402;2022-11-15T06:31:34;48.70;;;18.63;;
76320;SDS011;65132;52.088;5.402;2022-11-15T06:34:00;43.75;;;18.52;;
76320;SDS011;65132;52.088;5.402;2022-11-15T06:36:27;42.40;;;17.98;;
76320;SDS011;65132;52.088;5.402;2022-11-15T06:38:53;45.03;;;17.63;;
76320;SDS011;65132;52.088;5.402;2022-11-15T06:41:20;44.85;;;18.33;;
76320;SDS011;65132;52.088;5.402;2022-11-15T06:43:46;43.70;;;17.65;;
76320;SDS011;65132;52.088;5.402;2022-11-15T06:46:12;39.22;;;14.75;;
76320;SDS011;65132;52.088;5.402;2022-11-15T06:48:39;43.58;;;17.83;;
76320;SDS011;65132;52.088;5.402;2022-11-15T06:51:05;45.25;;;16.35;;
76320;SDS011;65132;52.088;5.402;2022-11-15T06:53:31;42.65;;;16.67;;
76320;SDS011;65132;52.088;5.402;2022-11-15T06:56:03;40.10;;;17.08;;
76320;SDS011;65132;52.088;5.402;2022-11-15T06:58:31;46.22;;;17.77;;
76320;SDS011;65132;52.088;5.402;2022-11-15T07:01:03;42.75;;;18.42;;
76320;SDS011;65132;52.088;5.402;2022-11-15T07:03:31;44.03;;;17.98;;
76320;SDS011;65132;52.088;5.402;2022-11-15T07:05:58;45.47;;;19.17;;
76320;SDS011;65132;52.088;5.402;2022-11-15T07:08:32;45.92;;;18.27;;
76320;SDS011;65132;52.088;5.402;2022-11-15T07:10:59;39.50;;;15.82;;
76320;SDS011;65132;52.088;5.402;2022-11-15T07:13:27;44.28;;;18.48;;
76320;SDS011;65132;52.088;5.402;2022-11-15T07:15:55;39.90;;;16.80;;
76320;SDS011;65132;52.088;5.402;2022-11-15T07:18:23;39.33;;;16.63;;
76320;SDS011;65132;52.088;5.402;2022-11-15T07:20:49;39.60;;;16.40;;
76320;SDS011;65132;52.088;5.402;2022-11-15T07:23:16;44.50;;;17.02;;
76320;SDS011;65132;52.088;5.402;2022-11-15T07:25:43;37.65;;;15.00;;
76320;SDS011;65132;52.088;5.402;2022-11-15T07:28:09;37.25;;;16.02;;
76320;SDS011;65132;52.088;5.402;2022-11-15T07:30:36;34.08;;;14.48;;
76320;SDS011;65132;52.088;5.402;2022-11-15T07:33:10;35.38;;;14.60;;
76320;SDS011;65132;52.088;5.402;2022-11-15T07:35:36;36.15;;;15.32;;
76320;SDS011;65132;52.088;5.402;2022-11-15T07:38:03;34.92;;;15.02;;
76320;SDS011;65132;52.088;5.402;2022-11-15T07:40:31;36.70;;;15.82;;
76320;SDS011;65132;52.088;5.402;2022-11-15T08:12:28;28.23;;;12.88;;
76320;SDS011;65132;52.088;5.402;2022-11-15T08:14:55;30.95;;;12.68;;
76320;SDS011;65132;52.088;5.402;2022-11-15T08:25:28;27.73;;;11.48;;
76320;SDS011;65132;52.088;5.402;2022-11-15T08:27:57;25.80;;;11.43;;
76320;SDS011;65132;52.088;5.402;2022-11-15T08:30:25;25.42;;;12.30;;
76320;SDS011;65132;52.088;5.402;2022-11-15T08:38:16;27.55;;;11.75;;
76320;SDS011;65132;52.088;5.402;2022-11-15T08:40:42;29.77;;;12.10;;
76320;SDS011;65132;52.088;5.402;2022-11-15T08:43:09;27.15;;;10.88;;
76320;SDS011;65132;52.088;5.402;2022-11-15T08:45:35;27.73;;;12.23;;
76320;SDS011;65132;52.088;5.402;2022-11-15T08:48:02;24.10;;;11.60;;
76320;SDS011;65132;52.088;5.402;2022-11-15T08:50:29;25.20;;;12.68;;
76320;SDS011;65132;52.088;5.402;2022-11-15T08:52:56;31.02;;;12.48;;
76320;SDS011;65132;52.088;5.402;2022-11-15T08:55:22;28.27;;;12.50;;
76320;SDS011;65132;52.088;5.402;2022-11-15T08:57:50;28.38;;;12.32;;
76320;SDS011;65132;52.088;5.402;2022-11-15T09:00:16;24.00;;;10.93;;
76320;SDS011;65132;52.088;5.402;2022-11-15T09:02:43;31.30;;;13.05;;
76320;SDS011;65132;52.088;5.402;2022-11-15T09:05:10;27.45;;;12.60;;
76320;SDS011;65132;52.088;5.402;2022-11-15T09:07:36;25.85;;;12.00;;
76320;SDS011;65132;52.088;5.402;2022-11-15T09:10:02;28.23;;;12.45;;
76320;SDS011;65132;52.088;5.402;2022-11-15T09:12:29;25.50;;;10.93;;
76320;SDS011;65132;52.088;5.402;2022-11-15T09:14:56;26.00;;;12.23;;
76320;SDS011;65132;52.088;5.402;2022-11-15T09:17:22;25.90;;;13.10;;
76320;SDS011;65132;52.088;5.402;2022-11-15T09:19:50;23.77;;;11.63;;
76320;SDS011;65132;52.088;5.402;2022-11-15T09:30:15;20.45;;;11.35;;
76320;SDS011;65132;52.088;5.402;2022-11-15T09:35:17;20.27;;;10.48;;
76320;SDS011;65132;52.088;5.402;2022-11-15T09:37:43;17.88;;;9.38;;
76320;SDS011;65132;52.088;5.402;2022-11-15T09:40:11;16.42;;;8.35;;
76320;SDS011;65132;52.088;5.402;2022-11-15T09:56:27;10.63;;;5.85;;
76320;SDS011;65132;52.088;5.402;2022-11-15T10:04:30;13.80;;;5.15;;
76320;SDS011;65132;52.088;5.402;2022-11-15T10:07:06;12.40;;;5.47;;
76320;SDS011;65132;52.088;5.402;2022-11-15T10:12:29;11.88;;;6.47;;
76320;SDS011;65132;52.088;5.402;2022-11-15T11:17:49;5.28;;;2.42;;
76320;SDS011;65132;52.088;5.402;2022-11-15T11:20:32;6.38;;;2.65;;
76320;SDS011;65132;52.088;5.402;2022-11-15T11:25:34;6.15;;;2.30;;
76320;SDS011;65132;52.088;5.402;2022-11-15T11:28:10;5.95;;;2.55;;
76320;SDS011;65132;52.088;5.402;2022-11-15T11:36:36;5.63;;;2.60;;
76320;SDS011;65132;52.088;5.402;2022-11-15T11:39:15;5.07;;;2.22;;
76320;SDS011;65132;52.088;5.402;2022-11-15T11:55:02;4.38;;;1.25;;
76320;SDS011;65132;52.088;5.402;2022-11-15T12:00:22;4.63;;;1.20;;
76320;SDS011;65132;52.088;5.402;2022-11-15T12:06:02;4.55;;;1.10;;
76320;SDS011;65132;52.088;5.402;2022-11-15T12:08:52;4.30;;;1.08;;
76320;SDS011;65132;52.088;5.402;2022-11-15T12:13:58;5.93;;;1.02;;
76320;SDS011;65132;52.088;5.402;2022-11-15T12:16:28;3.97;;;1.00;;
76320;SDS011;65132;52.088;5.402;2022-11-15T12:18:57;4.57;;;0.80;;
76320;SDS011;65132;52.088;5.402;2022-11-15T12:21:39;5.80;;;0.80;;
76320;SDS011;65132;52.088;5.402;2022-11-15T12:43:03;4.38;;;0.82;;
76320;SDS011;65132;52.088;5.402;2022-11-15T12:45:35;5.10;;;0.60;;
76320;SDS011;65132;52.088;5.402;2022-11-15T13:26:12;6.68;;;1.30;;
76320;SDS011;65132;52.088;5.402;2022-11-15T13:45:05;5.30;;;1.70;;
76320;SDS011;65132;52.088;5.402;2022-11-15T13:47:53;3.50;;;1.40;;
76320;SDS011;65132;52.088;5.402;2022-11-15T13:55:48;3.58;;;1.20;;
76320;SDS011;65132;52.088;5.402;2022-11-15T13:58:16;6.43;;;1.60;;
76320;SDS011;65132;52.088;5.402;2022-11-15T14:00:49;4.53;;;1.42;;
76320;SDS011;65132;52.088;5.402;2022-11-15T14:03:31;4.18;;;1.20;;
76320;SDS011;65132;52.088;5.402;2022-11-15T14:11:37;3.40;;;1.20;;
76320;SDS011;65132;52.088;5.402;2022-11-15T14:14:15;4.70;;;1.52;;
76320;SDS011;65132;52.088;5.402;2022-11-15T14:16:45;3.88;;;1.00;;
76320;SDS011;65132;52.088;5.402;2022-11-15T14:24:34;3.38;;;1.10;;
76320;SDS011;65132;52.088;5.402;2022-11-15T14:29:51;5.40;;;0.98;;
76320;SDS011;65132;52.088;5.402;2022-11-15T14:32:22;4.68;;;1.00;;
76320;SDS011;65132;52.088;5.402;2022-11-15T14:34:54;4.55;;;1.00;;
76320;SDS011;65132;52.088;5.402;2022-11-15T14:37:24;3.40;;;0.90;;
76320;SDS011;65132;52.088;5.402;2022-11-15T14:39:54;3.72;;;0.90;;
76320;SDS011;65132;52.088;5.402;2022-11-15T14:42:21;5.05;;;1.17;;
76320;SDS011;65132;52.088;5.402;2022-11-15T14:44:49;2.58;;;1.02;;
76320;SDS011;65132;52.088;5.402;2022-11-15T14:47:16;3.20;;;0.85;;
76320;SDS011;65132;52.088;5.402;2022-11-15T14:49:42;4.38;;;1.13;;
76320;SDS011;65132;52.088;5.402;2022-11-15T14:52:16;5.68;;;1.13;;
76320;SDS011;65132;52.088;5.402;2022-11-15T14:54:57;3.55;;;1.05;;
76320;SDS011;65132;52.088;5.402;2022-11-15T14:57:23;4.85;;;1.10;;
76320;SDS011;65132;52.088;5.402;2022-11-15T14:59:50;4.32;;;1.42;;
76320;SDS011;65132;52.088;5.402;2022-11-15T15:02:18;5.28;;;1.23;;
76320;SDS011;65132;52.088;5.402;2022-11-15T15:04:49;4.93;;;1.10;;
76320;SDS011;65132;52.088;5.402;2022-11-15T15:07:17;4.28;;;1.40;;
76320;SDS011;65132;52.088;5.402;2022-11-15T15:09:44;5.10;;;1.20;;
76320;SDS011;65132;52.088;5.402;2022-11-15T15:12:17;5.68;;;1.10;;
76320;SDS011;65132;52.088;5.402;2022-11-15T15:14:46;5.38;;;1.50;;
76320;SDS011;65132;52.088;5.402;2022-11-15T15:17:14;6.30;;;1.20;;
76320;SDS011;65132;52.088;5.402;2022-11-15T15:19:41;2.92;;;0.90;;
76320;SDS011;65132;52.088;5.402;2022-11-15T15:22:10;6.88;;;1.70;;
76320;SDS011;65132;52.088;5.402;2022-11-15T15:24:40;4.05;;;1.40;;
76320;SDS011;65132;52.088;5.402;2022-11-15T15:27:06;6.00;;;2.28;;
76320;SDS011;65132;52.088;5.402;2022-11-15T15:29:32;6.82;;;1.77;;
76320;SDS011;65132;52.088;5.402;2022-11-15T15:31:59;9.77;;;2.00;;
76320;SDS011;65132;52.088;5.402;2022-11-15T15:34:25;5.88;;;1.52;;
76320;SDS011;65132;52.088;5.402;2022-11-15T15:39:54;4.78;;;1.60;;
76320;SDS011;65132;52.088;5.402;2022-11-15T15:42:23;4.88;;;1.58;;
76320;SDS011;65132;52.088;5.402;2022-11-15T15:44:50;4.65;;;1.83;;
76320;SDS011;65132;52.088;5.402;2022-11-15T15:47:20;5.13;;;2.08;;
76320;SDS011;65132;52.088;5.402;2022-11-15T15:49:48;3.95;;;1.00;;
76320;SDS011;65132;52.088;5.402;2022-11-15T15:52:16;3.63;;;1.05;;
76320;SDS011;65132;52.088;5.402;2022-11-15T15:54:43;5.30;;;1.20;;
76320;SDS011;65132;52.088;5.402;2022-11-15T15:57:11;3.92;;;1.05;;
76320;SDS011;65132;52.088;5.402;2022-11-15T15:59:39;6.78;;;1.13;;
76320;SDS011;65132;52.088;5.402;2022-11-15T16:02:05;6.05;;;1.45;;
76320;SDS011;65132;52.088;5.402;2022-11-15T16:04:32;5.35;;;1.50;;
76320;SDS011;65132;52.088;5.402;2022-11-15T16:06:59;3.53;;;1.35;;
76320;SDS011;65132;52.088;5.402;2022-11-15T16:09:26;3.72;;;1.10;;
76320;SDS011;65132;52.088;5.402;2022-11-15T16:11:52;3.58;;;1.13;;
76320;SDS011;65132;52.088;5.402;2022-11-15T16:14:19;3.33;;;1.10;;
76320;SDS011;65132;52.088;5.402;2022-11-15T16:16:45;5.13;;;0.85;;
76320;SDS011;65132;52.088;5.402;2022-11-15T16:19:11;2.53;;;0.93;;
76320;SDS011;65132;52.088;5.402;2022-11-15T16:21:38;3.80;;;0.98;;
76320;SDS011;65132;52.088;5.402;2022-11-15T16:24:04;2.92;;;1.00;;
76320;SDS011;65132;52.088;5.402;2022-11-15T16:26:31;2.63;;;1.10;;
76320;SDS011;65132;52.088;5.402;2022-11-15T16:29:00;5.93;;;1.15;;
76320;SDS011;65132;52.088;5.402;2022-11-15T16:31:27;3.33;;;1.38;;
76320;SDS011;65132;52.088;5.402;2022-11-15T16:33:55;2.60;;;0.90;;
76320;SDS011;65132;52.088;5.402;2022-11-15T16:36:23;5.32;;;1.05;;
76320;SDS011;65132;52.088;5.402;2022-11-15T16:38:56;3.72;;;1.20;;
76320;SDS011;65132;52.088;5.402;2022-11-15T16:41:22;6.03;;;1.30;;
76320;SDS011;65132;52.088;5.402;2022-11-15T16:43:48;3.00;;;1.00;;
76320;SDS011;65132;52.088;5.402;2022-11-15T16:46:19;3.03;;;1.00;;
76320;SDS011;65132;52.088;5.402;2022-11-15T16:48:47;7.05;;;1.50;;
76320;SDS011;65132;52.088;5.402;2022-11-15T16:51:15;6.70;;;1.35;;
76320;SDS011;65132;52.088;5.402;2022-11-15T16:53:42;4.85;;;1.15;;
76320;SDS011;65132;52.088;5.402;2022-11-15T16:56:28;8.68;;;2.25;;
76320;SDS011;65132;52.088;5.402;2022-11-15T16:58:56;4.20;;;1.00;;
76320;SDS011;65132;52.088;5.402;2022-11-15T17:01:27;3.65;;;0.90;;
76320;SDS011;65132;52.088;5.402;2022-11-15T17:03:55;4.03;;;1.10;;
76320;SDS011;65132;52.088;5.402;2022-11-15T17:06:22;3.42;;;1.08;;
76320;SDS011;65132;52.088;5.402;2022-11-15T17:08:49;3.00;;;1.23;;
76320;SDS011;65132;52.088;5.402;2022-11-15T17:11:19;3.58;;;0.88;;
76320;SDS011;65132;52.088;5.402;2022-11-15T17:13:47;4.80;;;1.25;;
76320;SDS011;65132;52.088;5.402;2022-11-15T17:16:15;2.75;;;1.08;;
76320;SDS011;65132;52.088;5.402;2022-11-15T17:18:42;3.03;;;1.23;;
76320;SDS011;65132;52.088;5.402;2022-11-15T17:21:11;2.95;;;1.15;;
76320;SDS011;65132;52.088;5.402;2022-11-15T17:23:40;4.97;;;1.40;;
76320;SDS011;65132;52.088;5.402;2022-11-15T17:26:07;3.40;;;1.40;;
76320;SDS011;65132;52.088;5.402;2022-11-15T17:31:22;3.50;;;1.45;;
76320;SDS011;65132;52.088;5.402;2022-11-15T17:33:49;2.70;;;1.10;;
76320;SDS011;65132;52.088;5.402;2022-11-15T17:36:15;4.65;;;1.67;;
76320;SDS011;65132;52.088;5.402;2022-11-15T17:38:41;3.00;;;1.50;;
76320;SDS011;65132;52.088;5.402;2022-11-15T17:41:11;5.68;;;1.73;;
76320;SDS011;65132;52.088;5.402;2022-11-15T17:46:06;5.25;;;1.85;;
76320;SDS011;65132;52.088;5.402;2022-11-15T17:48:40;5.38;;;1.90;;
76320;SDS011;65132;52.088;5.402;2022-11-15T17:51:07;5.50;;;2.55;;
76320;SDS011;65132;52.088;5.402;2022-11-15T17:56:06;4.97;;;2.05;;
76320;SDS011;65132;52.088;5.402;2022-11-15T17:58:34;5.70;;;2.40;;
76320;SDS011;65132;52.088;5.402;2022-11-15T18:01:05;5.68;;;2.50;;
76320;SDS011;65132;52.088;5.402;2022-11-15T18:03:33;7.22;;;2.58;;
76320;SDS011;65132;52.088;5.402;2022-11-15T18:06:03;6.63;;;2.42;;
76320;SDS011;65132;52.088;5.402;2022-11-15T18:08:31;6.97;;;3.22;;
76320;SDS011;65132;52.088;5.402;2022-11-15T18:11:03;7.25;;;3.67;;
76320;SDS011;65132;52.088;5.402;2022-11-15T18:13:40;10.73;;;4.60;;
76320;SDS011;65132;52.088;5.402;2022-11-15T18:16:16;9.75;;;4.13;;
76320;SDS011;65132;52.088;5.402;2022-11-15T18:18:45;8.68;;;3.97;;
76320;SDS011;65132;52.088;5.402;2022-11-15T18:21:13;8.15;;;4.30;;
76320;SDS011;65132;52.088;5.402;2022-11-15T18:23:42;5.70;;;3.15;;
76320;SDS011;65132;52.088;5.402;2022-11-15T18:26:12;8.95;;;3.65;;
76320;SDS011;65132;52.088;5.402;2022-11-15T18:28:44;8.20;;;3.80;;
76320;SDS011;65132;52.088;5.402;2022-11-15T18:31:19;7.13;;;3.47;;
76320;SDS011;65132;52.088;5.402;2022-11-15T18:33:50;8.02;;;3.83;;
76320;SDS011;65132;52.088;5.402;2022-11-15T18:36:19;9.35;;;3.80;;
76320;SDS011;65132;52.088;5.402;2022-11-15T18:38:47;7.30;;;3.67;;
76320;SDS011;65132;52.088;5.402;2022-11-15T18:41:19;9.00;;;4.97;;
76320;SDS011;65132;52.088;5.402;2022-11-15T18:43:46;10.30;;;5.50;;
76320;SDS011;65132;52.088;5.402;2022-11-15T18:46:14;9.93;;;4.45;;
76320;SDS011;65132;52.088;5.402;2022-11-15T18:48:42;8.68;;;4.78;;
76320;SDS011;65132;52.088;5.402;2022-11-15T18:51:14;9.98;;;5.78;;
76320;SDS011;65132;52.088;5.402;2022-11-15T18:53:42;7.70;;;4.10;;
76320;SDS011;65132;52.088;5.402;2022-11-15T18:56:11;8.98;;;3.67;;
76320;SDS011;65132;52.088;5.402;2022-11-15T18:58:40;8.60;;;4.63;;
76320;SDS011;65132;52.088;5.402;2022-11-15T19:01:21;9.75;;;4.60;;
76320;SDS011;65132;52.088;5.402;2022-11-15T19:03:50;12.63;;;4.88;;
76320;SDS011;65132;52.088;5.402;2022-11-15T19:06:26;9.13;;;4.63;;
76320;SDS011;65132;52.088;5.402;2022-11-15T19:08:55;10.02;;;4.78;;
76320;SDS011;65132;52.088;5.402;2022-11-15T19:11:27;7.55;;;4.32;;
76320;SDS011;65132;52.088;5.402;2022-11-15T19:14:00;12.90;;;5.20;;
76320;SDS011;65132;52.088;5.402;2022-11-15T19:16:29;9.52;;;4.70;;
76320;SDS011;65132;52.088;5.402;2022-11-15T19:18:57;11.32;;;5.38;;
76320;SDS011;65132;52.088;5.402;2022-11-15T19:21:25;11.43;;;5.53;;
76320;SDS011;65132;52.088;5.402;2022-11-15T19:23:52;9.27;;;4.47;;
76320;SDS011;65132;52.088;5.402;2022-11-15T19:26:18;8.25;;;4.90;;
76320;SDS011;65132;52.088;5.402;2022-11-15T19:28:55;11.00;;;6.00;;
76320;SDS011;65132;52.088;5.402;2022-11-15T19:31:23;10.07;;;5.53;;
76320;SDS011;65132;52.088;5.402;2022-11-15T19:33:51;9.95;;;5.65;;
76320;SDS011;65132;52.088;5.402;2022-11-15T19:36:22;10.63;;;5.80;;